createdAt,value
2023-10-05T00:01:13.657Z,98683.53
2023-10-05T00:06:15.500Z,98671.31
2023-10-05T00:11:29.995Z,98667.16
2023-10-05T00:16:40.137Z,98655.00
2023-10-05T00:21:48.467Z,98652.75
2023-10-05T00:26:50.342Z,98650.72
2023-10-05T00:31:51.678Z,98641.34
2023-10-05T00:36:57.126Z,98638.00
2023-10-05T00:42:04.693Z,98640.03
2023-10-05T00:47:07.407Z,98636.19
2023-10-05T00:52:16.294Z,98636.44
2023-10-05T00:57:20.901Z,98632.72
2023-10-05T01:02:23.151Z,98616.19
2023-10-05T01:07:24.632Z,98616.00
2023-10-05T01:12:44.515Z,98622.53
2023-10-05T01:17:45.841Z,98625.31
2023-10-05T01:22:47.111Z,98630.94
2023-10-05T01:27:48.634Z,98637.00
2023-10-05T01:32:50.914Z,98639.75
2023-10-05T01:37:53.399Z,98635.84
2023-10-05T01:42:55.289Z,98632.94
2023-10-05T01:47:56.568Z,98630.19
2023-10-05T01:53:08.379Z,98630.91
2023-10-05T01:58:10.378Z,98628.09
2023-10-05T02:03:15.165Z,98628.59
2023-10-05T02:08:16.508Z,98631.75
2023-10-05T02:13:17.947Z,98619.81
2023-10-05T02:18:23.623Z,98614.84
2023-10-05T02:23:30.193Z,98609.13
2023-10-05T02:28:34.842Z,98608.31
2023-10-05T02:33:39.083Z,98601.56
2023-10-05T02:38:40.804Z,98593.59
2023-10-05T02:43:42.073Z,98589.50
2023-10-05T02:48:44.312Z,98585.81
2023-10-05T02:53:46.770Z,98587.09
2023-10-05T02:58:48.742Z,98600.03
2023-10-05T03:03:52.489Z,98594.56
2023-10-05T03:08:57.861Z,98587.31
2023-10-05T03:13:59.842Z,98601.13
2023-10-05T03:19:01.621Z,98606.44
2023-10-05T03:24:03.512Z,98604.97
2023-10-05T03:29:04.986Z,98608.94
2023-10-05T03:34:08.490Z,98621.38
2023-10-05T03:39:09.859Z,98613.84
2023-10-05T03:44:16.874Z,98605.47
2023-10-05T03:49:22.705Z,98601.41
2023-10-05T03:54:27.295Z,98604.75
2023-10-05T03:59:28.615Z,98597.28
2023-10-05T04:04:35.896Z,98601.31
2023-10-05T04:09:37.347Z,98617.97
2023-10-05T04:14:39.271Z,98614.47
2023-10-05T04:19:42.969Z,98622.59
2023-10-05T04:24:45.729Z,98612.34
2023-10-05T04:29:47.417Z,98613.28
2023-10-05T04:34:48.650Z,98620.78
2023-10-05T04:39:49.937Z,98624.19
2023-10-05T04:44:53.677Z,98626.16
2023-10-05T04:49:54.911Z,98626.16
2023-10-05T04:54:59.318Z,98628.88
2023-10-05T05:00:20.571Z,98629.09
2023-10-05T05:05:41.627Z,98630.50
2023-10-05T05:10:43.868Z,98632.94
2023-10-05T05:15:45.251Z,98632.59
2023-10-05T05:20:46.867Z,98626.78
2023-10-05T05:25:49.966Z,98620.41
2023-10-05T05:30:53.819Z,98619.16
2023-10-05T05:35:55.619Z,98644.78
2023-10-05T05:40:56.822Z,98646.25
2023-10-05T05:45:59.756Z,98643.09
2023-10-05T05:51:06.301Z,98647.38
2023-10-05T05:56:07.646Z,98664.72
2023-10-05T06:01:09.286Z,98658.84
2023-10-05T06:06:10.533Z,98659.00
2023-10-05T06:11:13.746Z,98655.16
2023-10-05T06:16:15.628Z,98665.44
2023-10-05T06:21:17.264Z,98657.50
2023-10-05T06:26:18.516Z,98666.06
2023-10-05T06:31:19.825Z,98654.72
2023-10-05T06:36:26.581Z,98630.22
2023-10-05T06:41:28.163Z,98634.25
2023-10-05T06:46:29.707Z,98624.13
2023-10-05T06:51:31.968Z,98633.56
2023-10-05T06:56:33.229Z,98634.13
2023-10-05T07:01:36.098Z,98650.84
2023-10-05T07:06:37.470Z,98639.53
2023-10-05T07:11:39.230Z,98655.28
2023-10-05T07:16:40.448Z,98664.22
2023-10-05T07:21:41.683Z,98678.81
2023-10-05T07:26:43.026Z,98662.41
2023-10-05T07:31:44.309Z,98663.66
2023-10-05T07:36:45.940Z,98669.88
2023-10-05T07:41:48.340Z,98657.38
2023-10-05T07:46:49.611Z,98656.66
2023-10-05T07:51:51.979Z,98649.72
2023-10-05T08:01:56.383Z,98658.31
2023-10-05T08:06:59.071Z,98673.16
2023-10-05T08:12:00.364Z,98681.34
2023-10-05T08:17:01.674Z,98692.00
2023-10-05T08:22:03.354Z,98668.34
2023-10-05T08:27:04.663Z,98677.75
2023-10-05T08:32:07.394Z,98675.94
2023-10-05T08:37:10.092Z,98676.53
2023-10-05T08:42:12.853Z,98680.03
2023-10-05T08:47:14.436Z,98665.78
2023-10-05T08:52:15.758Z,98667.56
2023-10-05T08:57:18.181Z,98660.91
2023-10-05T09:02:22.832Z,98655.56
2023-10-05T09:07:24.632Z,98660.19
2023-10-05T09:12:48.613Z,98659.69
2023-10-05T09:17:53.063Z,98652.28
2023-10-05T09:22:57.559Z,98643.13
2023-10-05T09:28:00.119Z,98636.09
2023-10-05T09:33:01.499Z,98640.78
2023-10-05T09:38:03.162Z,98624.03
2023-10-05T09:43:06.818Z,98623.22
2023-10-05T09:48:08.480Z,98617.47
2023-10-05T09:53:12.754Z,98612.16
2023-10-05T09:58:14.164Z,98590.09
2023-10-05T10:03:18.809Z,98576.81
2023-10-05T10:08:24.374Z,98570.41
2023-10-05T10:13:26.433Z,98551.53
2023-10-05T10:18:47.955Z,98539.94
2023-10-05T10:23:51.077Z,98548.88
2023-10-05T10:29:07.916Z,98553.28
2023-10-05T10:34:10.688Z,98537.16
2023-10-05T10:39:24.574Z,98539.38
2023-10-05T10:44:26.151Z,98538.13
2023-10-05T10:49:27.594Z,98546.03
2023-10-05T10:54:30.086Z,98528.91
2023-10-05T10:59:35.980Z,98516.75
2023-10-05T11:04:50.286Z,98510.63
2023-10-05T11:09:56.031Z,98502.78
2023-10-05T11:14:57.988Z,98509.81
2023-10-05T11:20:12.542Z,98501.91
2023-10-05T11:25:17.136Z,98487.56
2023-10-05T11:30:25.916Z,98487.38
2023-10-05T11:35:43.664Z,98491.88
2023-10-05T11:40:51.300Z,98482.81
2023-10-05T11:45:52.570Z,98481.13
2023-10-05T11:50:56.865Z,98483.50
2023-10-05T11:55:59.548Z,98480.84
2023-10-05T12:01:04.406Z,98490.31
2023-10-05T12:06:09.768Z,98496.63
2023-10-05T12:11:11.731Z,98492.28
2023-10-05T12:16:13.169Z,98489.91
2023-10-05T12:21:14.537Z,98487.59
2023-10-05T12:26:16.360Z,98487.59
2023-10-05T12:31:19.438Z,98503.44
2023-10-05T12:36:20.768Z,98494.97
2023-10-05T12:41:22.019Z,98491.91
2023-10-05T12:46:29.821Z,98492.53
2023-10-05T12:51:31.224Z,98484.19
2023-10-05T12:56:32.445Z,98486.81
2023-10-05T13:01:34.834Z,98488.16
2023-10-05T13:06:36.240Z,98483.72
2023-10-05T13:11:40.255Z,98485.72
2023-10-05T13:16:41.598Z,98491.44
2023-10-05T13:21:46.149Z,98495.75
2023-10-05T13:26:47.741Z,98496.34
2023-10-05T13:31:49.047Z,98497.56
2023-10-05T13:36:53.532Z,98500.16
2023-10-05T13:42:01.684Z,98512.69
2023-10-05T13:47:04.026Z,98515.53
2023-10-05T13:52:07.931Z,98511.44
2023-10-05T13:57:12.304Z,98517.00
2023-10-05T14:02:14.557Z,98504.97
2023-10-05T14:07:15.940Z,98508.56
2023-10-05T14:12:18.958Z,98501.63
2023-10-05T14:17:20.677Z,98508.03
2023-10-05T14:22:23.490Z,98510.50
2023-10-05T14:27:31.663Z,98520.56
2023-10-05T14:32:43.622Z,98511.69
2023-10-05T14:37:44.980Z,98510.41
2023-10-05T14:42:46.257Z,98517.09
2023-10-05T14:47:47.638Z,98512.72
2023-10-05T14:52:50.381Z,98509.06
2023-10-05T14:57:52.488Z,98516.03
2023-10-05T15:02:54.268Z,98522.16
2023-10-05T15:07:59.927Z,98519.22
2023-10-05T15:13:01.166Z,98530.63
2023-10-05T15:18:02.817Z,98514.38
2023-10-05T15:23:04.098Z,98515.75
2023-10-05T15:28:06.315Z,98520.50
2023-10-05T15:33:08.830Z,98506.38
2023-10-05T15:38:10.311Z,98498.59
2023-10-05T15:43:11.542Z,98502.78
2023-10-05T15:48:14.553Z,98549.59
2023-10-05T15:53:17.264Z,98558.16
2023-10-05T15:58:18.553Z,98578.22
2023-10-05T16:03:19.924Z,98590.94
2023-10-05T16:08:21.214Z,98596.00
2023-10-05T16:13:22.502Z,98595.59
2023-10-05T16:18:25.108Z,98590.50
2023-10-05T16:23:26.366Z,98570.38
2023-10-05T16:28:28.563Z,98569.28
2023-10-05T16:33:31.775Z,98563.47
2023-10-05T16:38:33.009Z,98557.84
2023-10-05T16:43:34.245Z,98552.03
2023-10-05T16:48:36.884Z,98558.03
2023-10-05T16:53:38.335Z,98537.75
2023-10-05T16:58:39.677Z,98532.47
2023-10-05T17:03:41.246Z,98538.63
2023-10-05T17:08:42.663Z,98565.16
2023-10-05T17:13:43.970Z,98578.41
2023-10-05T17:18:45.261Z,98614.69
2023-10-05T17:23:46.502Z,98613.88
2023-10-05T17:28:47.757Z,98618.72
2023-10-05T17:33:49.044Z,98628.03
2023-10-05T17:38:50.352Z,98622.72
2023-10-05T17:43:51.590Z,98630.97
2023-10-05T17:48:52.905Z,98633.59
2023-10-05T17:53:54.174Z,98635.53
2023-10-05T17:58:55.443Z,98633.53
2023-10-05T18:03:56.657Z,98645.75
2023-10-05T18:09:01.727Z,98643.16
2023-10-05T18:14:02.995Z,98659.16
2023-10-05T18:19:04.651Z,98670.16
2023-10-05T18:24:13.241Z,98676.78
2023-10-05T18:29:14.590Z,98671.22
2023-10-05T18:34:15.810Z,98675.09
2023-10-05T18:39:17.748Z,98666.66
2023-10-05T18:44:19.148Z,98659.00
2023-10-05T18:49:22.437Z,98672.34
2023-10-05T18:54:23.721Z,98664.03
2023-10-05T18:59:25.748Z,98664.94
2023-10-05T19:04:28.154Z,98657.53
2023-10-05T19:09:29.508Z,98660.69
2023-10-05T19:14:30.837Z,98659.06
2023-10-05T19:19:32.077Z,98662.72
2023-10-05T19:24:33.502Z,98665.09
2023-10-05T19:29:34.719Z,98660.16
2023-10-05T19:34:35.940Z,98651.06
2023-10-05T19:39:37.158Z,98659.03
2023-10-05T19:44:38.432Z,98653.47
2023-10-05T19:49:43.133Z,98664.69
2023-10-05T19:54:44.470Z,98669.84
2023-10-05T19:59:46.535Z,98678.59
2023-10-05T20:04:50.427Z,98683.84
2023-10-05T20:09:55.014Z,98700.47
2023-10-05T20:14:58.424Z,98704.13
2023-10-05T20:19:59.797Z,98712.41
2023-10-05T20:25:01.105Z,98711.56
2023-10-05T20:30:02.326Z,98713.97
2023-10-05T20:35:03.719Z,98717.03
2023-10-05T20:40:05.090Z,98714.47
2023-10-05T20:45:07.906Z,98710.19
2023-10-05T20:50:09.593Z,98706.44
2023-10-05T20:55:10.835Z,98710.91
2023-10-05T21:00:13.778Z,98728.03
2023-10-05T21:05:15.643Z,98712.72
2023-10-05T21:10:16.995Z,98716.59
2023-10-05T21:15:18.870Z,98729.34
2023-10-05T21:20:22.067Z,98733.88
2023-10-05T21:25:23.374Z,98730.97
2023-10-05T21:30:24.633Z,98734.25
2023-10-05T21:35:25.874Z,98721.22
2023-10-05T21:40:27.212Z,98719.25
2023-10-05T21:45:28.587Z,98720.94
2023-10-05T21:50:29.912Z,98722.84
2023-10-05T21:55:31.149Z,98737.25
2023-10-05T22:00:41.614Z,98728.34
2023-10-05T22:05:42.929Z,98726.97
2023-10-05T22:10:44.727Z,98724.44
2023-10-05T22:15:46.260Z,98734.75
2023-10-05T22:20:47.574Z,98736.31
2023-10-05T22:25:48.806Z,98733.44
2023-10-05T22:30:50.092Z,98728.94
2023-10-05T22:35:51.278Z,98733.66
2023-10-05T22:40:53.797Z,98728.03
2023-10-05T22:45:55.118Z,98727.59
2023-10-05T22:51:00.058Z,98745.06
2023-10-05T22:56:01.272Z,98757.28
2023-10-05T23:01:03.717Z,98755.91
2023-10-05T23:06:04.934Z,98762.31
2023-10-05T23:11:09.264Z,98756.34
2023-10-05T23:16:10.555Z,98763.53
2023-10-05T23:21:11.772Z,98765.94
2023-10-05T23:26:16.149Z,98780.84
2023-10-05T23:31:17.714Z,98785.28
2023-10-05T23:36:19.166Z,98780.16
2023-10-05T23:41:22.565Z,98783.41
2023-10-05T23:46:23.884Z,98784.66
2023-10-05T23:51:25.086Z,98781.66
2023-10-05T23:56:26.330Z,98782.22
